createdAt,value
2022-07-29T00:04:04.055Z,42.06
2022-07-29T00:09:09.641Z,42.65
2022-07-29T00:14:13.581Z,42.32
2022-07-29T00:19:17.370Z,41.89
2022-07-29T00:24:22.627Z,42.34
2022-07-29T00:29:34.692Z,42.03
2022-07-29T00:34:38.792Z,42.29
2022-07-29T00:39:44.363Z,41.96
2022-07-29T00:44:48.197Z,42.07
2022-07-29T00:49:51.859Z,42.43
2022-07-29T00:54:57.729Z,42.51
2022-07-29T01:00:01.365Z,43.07
2022-07-29T01:05:05.657Z,43.33
2022-07-29T01:10:14.074Z,42.89
2022-07-29T01:15:17.979Z,43.41
2022-07-29T01:20:31.305Z,43.87
2022-07-29T01:26:16.451Z,43.52
2022-07-29T01:31:33.838Z,43.58
2022-07-29T01:36:47.268Z,44.17
2022-07-29T01:42:03.821Z,44.26
2022-07-29T01:47:16.276Z,44.66
2022-07-29T01:52:25.364Z,44.90
2022-07-29T01:57:32.712Z,45.78
2022-07-29T02:02:39.522Z,46.17
2022-07-29T02:07:44.819Z,46.69
2022-07-29T02:12:50.958Z,47.07
2022-07-29T02:17:59.906Z,47.33
2022-07-29T02:23:05.226Z,46.82
2022-07-29T02:28:10.489Z,47.10
2022-07-29T02:33:17.804Z,47.58
2022-07-29T02:38:24.011Z,47.70
2022-07-29T02:43:28.257Z,47.61
2022-07-29T02:48:38.256Z,47.69
2022-07-29T02:53:45.523Z,48.52
2022-07-29T02:58:55.287Z,49.31
2022-07-29T03:04:05.055Z,50.02
2022-07-29T03:09:13.243Z,50.18
2022-07-29T03:14:19.456Z,50.73
2022-07-29T03:19:25.106Z,51.90
2022-07-29T03:24:30.251Z,53.11
2022-07-29T03:29:34.507Z,54.10
2022-07-29T03:34:40.139Z,53.99
2022-07-29T03:39:44.724Z,53.63
2022-07-29T03:44:50.658Z,53.12
2022-07-29T03:50:01.450Z,52.87
2022-07-29T03:55:05.722Z,52.65
2022-07-29T04:00:11.273Z,54.15
2022-07-29T04:05:17.486Z,54.89
2022-07-29T04:10:25.214Z,54.79
2022-07-29T04:15:35.092Z,55.82
2022-07-29T04:20:40.391Z,55.71
2022-07-29T04:25:44.270Z,56.42
2022-07-29T04:30:47.902Z,55.46
2022-07-29T04:35:55.636Z,55.79
2022-07-29T04:40:59.275Z,55.82
2022-07-29T04:46:03.034Z,56.63
2022-07-29T04:51:09.205Z,57.53
2022-07-29T04:56:12.804Z,56.97
2022-07-29T05:01:16.634Z,57.07
2022-07-29T05:06:21.900Z,57.33
2022-07-29T05:11:30.291Z,57.19
2022-07-29T05:16:34.202Z,58.41
2022-07-29T05:21:41.837Z,59.42
2022-07-29T05:26:45.459Z,59.50
2022-07-29T05:31:49.059Z,59.86
2022-07-29T05:36:54.475Z,60.71
2022-07-29T05:41:57.306Z,62.46
2022-07-29T05:47:00.890Z,61.12
2022-07-29T05:52:06.648Z,61.91
2022-07-29T05:57:16.507Z,61.86
2022-07-29T06:02:20.381Z,61.48
2022-07-29T06:07:25.731Z,62.26
2022-07-29T06:12:29.353Z,62.18
2022-07-29T06:17:32.935Z,62.63
2022-07-29T06:22:38.223Z,62.46
2022-07-29T06:27:41.804Z,62.27
2022-07-29T06:32:45.378Z,62.64
2022-07-29T06:37:50.607Z,62.79
2022-07-29T06:42:58.898Z,62.87
2022-07-29T06:48:02.509Z,62.90
2022-07-29T06:53:07.750Z,63.21
2022-07-29T06:58:11.375Z,63.41
2022-07-29T07:03:14.974Z,63.22
2022-07-29T07:08:20.321Z,64.18
2022-07-29T07:13:23.948Z,64.09
2022-07-29T07:18:27.515Z,64.32
2022-07-29T07:23:32.829Z,65.24
2022-07-29T07:28:36.427Z,64.72
2022-07-29T07:33:40.091Z,65.03
2022-07-29T07:38:45.332Z,64.63
2022-07-29T07:43:48.948Z,64.51
2022-07-29T07:48:52.634Z,64.94
2022-07-29T07:53:58.898Z,66.13
2022-07-29T07:59:03.262Z,65.57
2022-07-29T08:04:07.006Z,66.03
2022-07-29T08:09:28.275Z,65.79
2022-07-29T08:14:33.482Z,65.55
2022-07-29T08:19:39.032Z,65.31
2022-07-29T08:24:44.295Z,65.39
2022-07-29T08:29:47.924Z,64.79
2022-07-29T08:34:51.567Z,64.38
2022-07-29T08:39:56.780Z,65.99
2022-07-29T08:45:01.233Z,66.16
2022-07-29T08:50:05.513Z,66.14
2022-07-29T08:55:11.655Z,65.78
2022-07-29T09:00:15.823Z,65.75
2022-07-29T09:05:20.831Z,65.16
2022-07-29T09:10:26.214Z,65.58
2022-07-29T09:15:30.066Z,65.35
2022-07-29T09:20:33.780Z,66.77
2022-07-29T09:25:40.214Z,66.97
2022-07-29T09:30:53.303Z,67.28
2022-07-29T09:36:07.663Z,67.57
2022-07-29T09:41:12.962Z,66.21
2022-07-29T09:46:16.859Z,66.25
2022-07-29T09:51:25.543Z,67.32
2022-07-29T09:56:44.261Z,66.56
2022-07-29T10:01:48.004Z,66.62
2022-07-29T10:07:09.038Z,69.03
2022-07-29T10:12:16.078Z,68.63
2022-07-29T10:17:20.355Z,67.88
2022-07-29T10:22:50.772Z,67.88
2022-07-29T10:27:50.698Z,67.76
2022-07-29T10:33:17.965Z,68.73
2022-07-29T10:38:45.633Z,68.49
2022-07-29T10:43:52.542Z,68.08
2022-07-29T10:49:11.353Z,69.10
2022-07-29T10:54:15.209Z,67.83
2022-07-29T10:59:36.138Z,68.78
2022-07-29T11:05:01.637Z,68.78
2022-07-29T11:10:26.992Z,67.93
2022-07-29T11:15:55.367Z,68.47
2022-07-29T11:20:59.131Z,67.50
2022-07-29T11:26:19.738Z,67.98
2022-07-29T11:31:35.750Z,67.51
2022-07-29T11:36:58.760Z,68.38
2022-07-29T11:42:35.337Z,68.69
2022-07-29T11:47:42.297Z,68.11
2022-07-29T11:52:50.105Z,68.23
2022-07-29T11:58:03.770Z,67.77
2022-07-29T12:03:11.406Z,68.75
2022-07-29T12:08:17.026Z,69.32
2022-07-29T12:13:22.231Z,69.11
2022-07-29T12:18:27.783Z,69.47
2022-07-29T12:23:34.996Z,69.07
2022-07-29T12:28:40.112Z,69.77
2022-07-29T12:33:53.577Z,69.42
2022-07-29T12:38:57.293Z,69.08
2022-07-29T12:44:00.863Z,69.34
2022-07-29T12:49:06.162Z,69.62
2022-07-29T12:54:11.563Z,70.25
2022-07-29T12:59:16.737Z,70.59
2022-07-29T13:04:32.325Z,71.38
2022-07-29T13:09:40.123Z,70.28
2022-07-29T13:14:44.567Z,68.95
2022-07-29T13:19:51.375Z,67.84
2022-07-29T13:24:56.180Z,67.97
2022-07-29T13:30:00.783Z,67.79
2022-07-29T13:35:08.555Z,67.66
2022-07-29T13:40:13.251Z,67.88
2022-07-29T13:45:16.880Z,67.05
2022-07-29T13:50:22.174Z,67.29
2022-07-29T13:55:25.963Z,67.06
2022-07-29T14:00:29.562Z,66.55
2022-07-29T14:05:34.867Z,66.28
2022-07-29T14:10:38.515Z,66.75
2022-07-29T14:15:42.204Z,66.89
2022-07-29T14:20:47.461Z,68.12
2022-07-29T14:25:51.139Z,67.70
2022-07-29T14:30:54.899Z,66.86
2022-07-29T14:36:00.976Z,66.74
2022-07-29T14:41:05.095Z,66.54
2022-07-29T14:46:08.794Z,65.43
2022-07-29T14:51:14.089Z,65.97
2022-07-29T14:56:36.138Z,66.35
2022-07-29T15:01:40.967Z,65.56
2022-07-29T15:06:47.047Z,65.45
2022-07-29T15:11:50.831Z,62.94
2022-07-29T15:16:54.450Z,61.28
2022-07-29T15:22:01.222Z,60.41
2022-07-29T15:27:05.294Z,59.62
2022-07-29T15:32:09.143Z,58.37
2022-07-29T15:37:14.428Z,56.55
2022-07-29T15:42:18.802Z,55.93
2022-07-29T15:47:22.378Z,54.60
2022-07-29T15:52:30.345Z,52.47
2022-07-29T15:57:34.002Z,52.34
2022-07-29T16:02:37.607Z,51.48
2022-07-29T16:07:42.860Z,49.52
2022-07-29T16:12:45.714Z,49.14
2022-07-29T16:17:49.290Z,49.27
2022-07-29T16:22:54.581Z,47.49
2022-07-29T16:27:59.901Z,47.30
2022-07-29T16:33:08.036Z,46.20
2022-07-29T16:38:13.707Z,45.75
2022-07-29T16:43:17.323Z,45.58
2022-07-29T16:48:20.954Z,45.17
2022-07-29T16:53:30.079Z,44.70
2022-07-29T16:58:33.930Z,44.44
2022-07-29T17:03:37.556Z,44.11
2022-07-29T17:08:42.917Z,44.17
2022-07-29T17:13:46.539Z,44.19
2022-07-29T17:18:50.187Z,43.86
2022-07-29T17:23:55.518Z,43.02
2022-07-29T17:28:59.125Z,44.21
2022-07-29T17:34:02.738Z,44.82
2022-07-29T17:39:09.085Z,43.58
2022-07-29T17:44:12.682Z,44.57
2022-07-29T17:49:16.338Z,44.04
2022-07-29T17:54:24.422Z,44.04
2022-07-29T17:59:30.368Z,44.24
2022-07-29T18:04:34.004Z,44.30
2022-07-29T18:09:39.252Z,43.98
2022-07-29T18:14:42.891Z,44.13
2022-07-29T18:19:46.473Z,43.96
2022-07-29T18:24:51.767Z,43.85
2022-07-29T18:29:55.586Z,44.55
2022-07-29T18:34:59.220Z,43.61
2022-07-29T18:40:04.637Z,43.25
2022-07-29T18:45:18.997Z,43.22
2022-07-29T18:50:26.912Z,43.10
2022-07-29T18:55:34.124Z,42.49
2022-07-29T19:00:37.715Z,42.12
2022-07-29T19:05:41.367Z,42.83
2022-07-29T19:10:46.636Z,43.11
2022-07-29T19:15:50.323Z,42.98
2022-07-29T19:20:53.969Z,42.77
2022-07-29T19:25:59.212Z,42.75
2022-07-29T19:31:04.027Z,42.07
2022-07-29T19:36:08.569Z,42.82
2022-07-29T19:41:13.813Z,42.16
2022-07-29T19:46:17.460Z,41.21
2022-07-29T19:51:21.352Z,41.47
2022-07-29T19:56:26.540Z,41.33
2022-07-29T20:01:30.203Z,40.62
2022-07-29T20:06:37.102Z,41.14
2022-07-29T20:11:42.305Z,40.17
2022-07-29T20:16:45.939Z,41.65
2022-07-29T20:21:49.510Z,40.97
2022-07-29T20:26:54.835Z,41.24
2022-07-29T20:31:58.441Z,40.69
2022-07-29T20:37:02.403Z,40.40
2022-07-29T20:42:08.334Z,40.91
2022-07-29T20:47:11.928Z,40.53
2022-07-29T20:52:15.540Z,39.62
2022-07-29T20:57:38.668Z,39.91
2022-07-29T21:02:43.453Z,40.02
2022-07-29T21:07:47.059Z,40.31
2022-07-29T21:12:52.313Z,41.31
2022-07-29T21:17:55.966Z,40.30
2022-07-29T21:23:00.455Z,40.57
2022-07-29T21:28:07.502Z,40.53
2022-07-29T21:33:11.399Z,40.53
2022-07-29T21:38:17.172Z,41.24
2022-07-29T21:43:22.892Z,42.02
2022-07-29T21:48:27.672Z,41.85
2022-07-29T21:53:31.336Z,41.57
2022-07-29T21:58:36.548Z,42.48
2022-07-29T22:03:40.122Z,41.97
2022-07-29T22:08:43.707Z,41.59
2022-07-29T22:13:48.940Z,41.85
2022-07-29T22:18:52.555Z,41.91
2022-07-29T22:23:56.139Z,41.63
2022-07-29T22:29:01.373Z,42.18
2022-07-29T22:34:04.946Z,42.28
2022-07-29T22:39:09.059Z,42.31
2022-07-29T22:44:14.312Z,41.28
2022-07-29T22:49:17.991Z,41.84
2022-07-29T22:54:21.603Z,41.75
2022-07-29T22:59:26.828Z,42.41
2022-07-29T23:04:30.456Z,41.71
2022-07-29T23:09:34.136Z,41.84
2022-07-29T23:14:40.616Z,42.24
2022-07-29T23:19:44.295Z,42.94
2022-07-29T23:24:48.616Z,42.47
2022-07-29T23:29:53.851Z,43.16
2022-07-29T23:34:57.447Z,43.15
2022-07-29T23:40:01.111Z,43.71
2022-07-29T23:45:07.096Z,43.50
2022-07-29T23:50:12.258Z,43.92
2022-07-29T23:55:37.465Z,43.65
